sensor_id;sensor_type;location;lat;lon;timestamp;temperature;humidity
33093;DHT22;19456;46.104;12.908;2023-02-01T01:18:54;0.60;99.90
33093;DHT22;19456;46.104;12.908;2023-02-01T06:58:43;1.00;99.90
33093;DHT22;19456;46.104;12.908;2023-02-01T07:01:32;1.20;99.90
33093;DHT22;19456;46.104;12.908;2023-02-01T07:04:02;1.20;99.90
33093;DHT22;19456;46.104;12.908;2023-02-01T08:28:14;3.40;99.90
33093;DHT22;19456;46.104;12.908;2023-02-01T08:34:02;3.70;99.90
33093;DHT22;19456;46.104;12.908;2023-02-01T08:39:54;3.90;99.90
33093;DHT22;19456;46.104;12.908;2023-02-01T08:42:20;4.00;99.90
33093;DHT22;19456;46.104;12.908;2023-02-01T08:45:04;3.80;99.90
33093;DHT22;19456;46.104;12.908;2023-02-01T08:47:30;3.50;99.90
33093;DHT22;19456;46.104;12.908;2023-02-01T08:49:55;3.60;99.90
33093;DHT22;19456;46.104;12.908;2023-02-01T08:52:21;3.70;99.90
33093;DHT22;19456;46.104;12.908;2023-02-01T08:54:47;3.60;99.90
33093;DHT22;19456;46.104;12.908;2023-02-01T08:57:12;3.60;99.90
33093;DHT22;19456;46.104;12.908;2023-02-01T08:59:38;3.60;99.90
33093;DHT22;19456;46.104;12.908;2023-02-01T09:02:04;3.60;99.90
33093;DHT22;19456;46.104;12.908;2023-02-01T09:04:30;3.70;99.90
33093;DHT22;19456;46.104;12.908;2023-02-01T09:06:56;4.00;99.90
33093;DHT22;19456;46.104;12.908;2023-02-01T09:09:22;4.20;99.90
33093;DHT22;19456;46.104;12.908;2023-02-01T09:11:50;4.40;99.90
33093;DHT22;19456;46.104;12.908;2023-02-01T09:14:17;4.70;99.90
33093;DHT22;19456;46.104;12.908;2023-02-01T09:16:43;4.70;99.90
33093;DHT22;19456;46.104;12.908;2023-02-01T09:19:08;4.80;99.90
33093;DHT22;19456;46.104;12.908;2023-02-01T09:21:35;4.80;99.90
33093;DHT22;19456;46.104;12.908;2023-02-01T09:24:00;4.90;99.90
33093;DHT22;19456;46.104;12.908;2023-02-01T09:26:26;5.00;99.90
33093;DHT22;19456;46.104;12.908;2023-02-01T09:28:52;5.00;99.90
33093;DHT22;19456;46.104;12.908;2023-02-01T09:31:18;5.10;99.90
33093;DHT22;19456;46.104;12.908;2023-02-01T09:33:44;5.30;99.90
33093;DHT22;19456;46.104;12.908;2023-02-01T09:36:27;5.60;99.90
33093;DHT22;19456;46.104;12.908;2023-02-01T09:54:46;6.90;99.90
33093;DHT22;19456;46.104;12.908;2023-02-01T09:57:23;7.20;99.90
33093;DHT22;19456;46.104;12.908;2023-02-01T09:59:52;7.40;99.90
33093;DHT22;19456;46.104;12.908;2023-02-01T10:02:31;7.80;99.90
33093;DHT22;19456;46.104;12.908;2023-02-01T10:17:23;7.60;99.90
33093;DHT22;19456;46.104;12.908;2023-02-01T10:26:32;7.80;99.90
33093;DHT22;19456;46.104;12.908;2023-02-01T10:32:36;8.20;99.90
33093;DHT22;19456;46.104;12.908;2023-02-01T10:51:45;8.90;99.90
33093;DHT22;19456;46.104;12.908;2023-02-01T10:54:16;8.90;99.90
33093;DHT22;19456;46.104;12.908;2023-02-01T10:56:47;9.20;99.90
33093;DHT22;19456;46.104;12.908;2023-02-01T10:59:15;9.40;99.90
33093;DHT22;19456;46.104;12.908;2023-02-01T11:01:58;9.50;99.90
33093;DHT22;19456;46.104;12.908;2023-02-01T11:07:53;9.40;99.90
33093;DHT22;19456;46.104;12.908;2023-02-01T11:10:49;9.10;99.90
33093;DHT22;19456;46.104;12.908;2023-02-01T11:13:42;9.30;99.90
33093;DHT22;19456;46.104;12.908;2023-02-01T11:16:54;9.40;99.90
33093;DHT22;19456;46.104;12.908;2023-02-01T11:19:20;9.60;99.90
33093;DHT22;19456;46.104;12.908;2023-02-01T11:28:05;11.20;99.90
33093;DHT22;19456;46.104;12.908;2023-02-01T11:39:58;13.70;99.90
33093;DHT22;19456;46.104;12.908;2023-02-01T12:34:38;16.90;99.90
33093;DHT22;19456;46.104;12.908;2023-02-01T12:49:10;18.80;96.60
33093;DHT22;19456;46.104;12.908;2023-02-01T12:51:43;18.80;96.00
33093;DHT22;19456;46.104;12.908;2023-02-01T12:57:21;16.30;98.90
33093;DHT22;19456;46.104;12.908;2023-02-01T13:09:41;19.50;94.90
33093;DHT22;19456;46.104;12.908;2023-02-01T13:18:56;17.90;94.50
33093;DHT22;19456;46.104;12.908;2023-02-01T13:21:41;17.70;95.70
33093;DHT22;19456;46.104;12.908;2023-02-01T13:24:38;19.00;94.70
33093;DHT22;19456;46.104;12.908;2023-02-01T13:41:58;20.30;90.50
33093;DHT22;19456;46.104;12.908;2023-02-01T13:44:39;20.50;89.60
33093;DHT22;19456;46.104;12.908;2023-02-01T13:47:18;20.50;89.80
33093;DHT22;19456;46.104;12.908;2023-02-01T13:49:54;21.50;87.50
33093;DHT22;19456;46.104;12.908;2023-02-01T13:52:25;21.20;86.20
33093;DHT22;19456;46.104;12.908;2023-02-01T13:55:00;21.40;84.20
33093;DHT22;19456;46.104;12.908;2023-02-01T13:57:39;20.90;83.70
33093;DHT22;19456;46.104;12.908;2023-02-01T14:00:07;20.70;84.80
33093;DHT22;19456;46.104;12.908;2023-02-01T14:21:47;19.70;85.20
33093;DHT22;19456;46.104;12.908;2023-02-01T14:58:25;13.50;98.40
33093;DHT22;19456;46.104;12.908;2023-02-01T15:00:55;13.20;99.50
33093;DHT22;19456;46.104;12.908;2023-02-01T15:06:18;12.50;99.90
33093;DHT22;19456;46.104;12.908;2023-02-01T15:17:55;11.30;99.90
33093;DHT22;19456;46.104;12.908;2023-02-01T16:31:18;7.80;99.90
33093;DHT22;19456;46.104;12.908;2023-02-01T16:33:48;7.90;99.90
33093;DHT22;19456;46.104;12.908;2023-02-01T16:36:14;7.80;99.90
33093;DHT22;19456;46.104;12.908;2023-02-01T16:38:40;7.70;99.90
33093;DHT22;19456;46.104;12.908;2023-02-01T16:41:05;7.80;99.90
33093;DHT22;19456;46.104;12.908;2023-02-01T16:43:31;7.60;99.90
33093;DHT22;19456;46.104;12.908;2023-02-01T16:45:59;7.40;99.90
33093;DHT22;19456;46.104;12.908;2023-02-01T16:48:26;7.00;99.90
33093;DHT22;19456;46.104;12.908;2023-02-01T16:50:53;6.70;99.90
33093;DHT22;19456;46.104;12.908;2023-02-01T16:53:19;6.70;99.90
33093;DHT22;19456;46.104;12.908;2023-02-01T16:55:45;6.50;99.90
33093;DHT22;19456;46.104;12.908;2023-02-01T16:58:13;6.40;99.90
33093;DHT22;19456;46.104;12.908;2023-02-01T17:00:38;6.50;99.90
33093;DHT22;19456;46.104;12.908;2023-02-01T17:03:04;6.30;99.90
33093;DHT22;19456;46.104;12.908;2023-02-01T17:05:31;6.30;99.90
33093;DHT22;19456;46.104;12.908;2023-02-01T17:07:57;6.40;99.90
33093;DHT22;19456;46.104;12.908;2023-02-01T17:10:25;6.40;99.90
33093;DHT22;19456;46.104;12.908;2023-02-01T17:12:52;6.50;99.90
33093;DHT22;19456;46.104;12.908;2023-02-01T17:15:17;6.60;99.90
33093;DHT22;19456;46.104;12.908;2023-02-01T17:17:43;6.60;99.90
33093;DHT22;19456;46.104;12.908;2023-02-01T17:20:15;6.60;99.90
33093;DHT22;19456;46.104;12.908;2023-02-01T17:22:42;6.50;99.90
33093;DHT22;19456;46.104;12.908;2023-02-01T17:25:13;6.50;99.90
33093;DHT22;19456;46.104;12.908;2023-02-01T17:27:39;6.60;99.90
33093;DHT22;19456;46.104;12.908;2023-02-01T17:30:06;6.40;99.90
33093;DHT22;19456;46.104;12.908;2023-02-01T17:32:35;6.40;99.90
33093;DHT22;19456;46.104;12.908;2023-02-01T17:35:00;6.40;99.90
33093;DHT22;19456;46.104;12.908;2023-02-01T17:37:27;6.40;99.90
33093;DHT22;19456;46.104;12.908;2023-02-01T17:39:53;6.30;99.90
33093;DHT22;19456;46.104;12.908;2023-02-01T17:42:19;5.90;99.90
33093;DHT22;19456;46.104;12.908;2023-02-01T17:44:45;5.90;99.90
33093;DHT22;19456;46.104;12.908;2023-02-01T17:47:10;5.70;99.90
33093;DHT22;19456;46.104;12.908;2023-02-01T17:49:36;5.30;99.90
33093;DHT22;19456;46.104;12.908;2023-02-01T17:52:06;5.20;99.90
33093;DHT22;19456;46.104;12.908;2023-02-01T17:54:33;5.30;99.90
33093;DHT22;19456;46.104;12.908;2023-02-01T17:56:59;5.20;99.90
33093;DHT22;19456;46.104;12.908;2023-02-01T17:59:26;5.00;99.90
33093;DHT22;19456;46.104;12.908;2023-02-01T18:01:51;5.10;99.90
33093;DHT22;19456;46.104;12.908;2023-02-01T18:04:18;5.10;99.90
33093;DHT22;19456;46.104;12.908;2023-02-01T18:06:43;5.00;99.90
33093;DHT22;19456;46.104;12.908;2023-02-01T18:09:09;4.60;99.90
33093;DHT22;19456;46.104;12.908;2023-02-01T18:11:35;4.30;99.90
33093;DHT22;19456;46.104;12.908;2023-02-01T18:14:00;4.20;99.90
33093;DHT22;19456;46.104;12.908;2023-02-01T18:18:51;4.00;99.90
33093;DHT22;19456;46.104;12.908;2023-02-01T18:21:18;4.10;99.90
33093;DHT22;19456;46.104;12.908;2023-02-01T18:23:47;4.10;99.90
33093;DHT22;19456;46.104;12.908;2023-02-01T18:26:15;4.10;99.90
33093;DHT22;19456;46.104;12.908;2023-02-01T18:28:40;4.00;99.90
33093;DHT22;19456;46.104;12.908;2023-02-01T18:31:06;3.90;99.90
33093;DHT22;19456;46.104;12.908;2023-02-01T18:33:32;3.90;99.90
33093;DHT22;19456;46.104;12.908;2023-02-01T18:35:58;3.80;99.90
33093;DHT22;19456;46.104;12.908;2023-02-01T18:38:23;3.80;99.90
33093;DHT22;19456;46.104;12.908;2023-02-01T18:40:50;3.70;99.90
33093;DHT22;19456;46.104;12.908;2023-02-01T18:43:16;3.80;99.90
33093;DHT22;19456;46.104;12.908;2023-02-01T18:45:42;3.80;99.90
33093;DHT22;19456;46.104;12.908;2023-02-01T18:48:09;3.80;99.90
33093;DHT22;19456;46.104;12.908;2023-02-01T18:50:36;3.90;99.90
33093;DHT22;19456;46.104;12.908;2023-02-01T18:53:03;3.80;99.90
33093;DHT22;19456;46.104;12.908;2023-02-01T18:55:29;3.80;99.90
33093;DHT22;19456;46.104;12.908;2023-02-01T18:58:02;3.80;99.90
33093;DHT22;19456;46.104;12.908;2023-02-01T19:00:28;3.90;99.90
33093;DHT22;19456;46.104;12.908;2023-02-01T19:02:54;3.80;99.90
33093;DHT22;19456;46.104;12.908;2023-02-01T19:05:20;3.80;99.90
33093;DHT22;19456;46.104;12.908;2023-02-01T19:07:45;3.90;99.90
33093;DHT22;19456;46.104;12.908;2023-02-01T19:10:13;4.10;99.90
33093;DHT22;19456;46.104;12.908;2023-02-01T19:12:38;4.20;99.90
33093;DHT22;19456;46.104;12.908;2023-02-01T19:15:05;4.20;99.90
33093;DHT22;19456;46.104;12.908;2023-02-01T19:17:31;4.10;99.90
33093;DHT22;19456;46.104;12.908;2023-02-01T19:19:57;4.20;99.90
33093;DHT22;19456;46.104;12.908;2023-02-01T19:22:23;4.30;99.90
33093;DHT22;19456;46.104;12.908;2023-02-01T19:24:48;4.40;99.90
33093;DHT22;19456;46.104;12.908;2023-02-01T19:27:14;4.60;99.90
33093;DHT22;19456;46.104;12.908;2023-02-01T19:29:40;4.50;99.90
33093;DHT22;19456;46.104;12.908;2023-02-01T19:32:09;4.50;99.90
33093;DHT22;19456;46.104;12.908;2023-02-01T19:34:34;4.50;99.90
33093;DHT22;19456;46.104;12.908;2023-02-01T19:37:00;4.30;99.90
33093;DHT22;19456;46.104;12.908;2023-02-01T19:39:25;4.10;99.90
33093;DHT22;19456;46.104;12.908;2023-02-01T19:41:51;4.20;99.90
33093;DHT22;19456;46.104;12.908;2023-02-01T19:44:17;4.20;99.90
33093;DHT22;19456;46.104;12.908;2023-02-01T19:46:42;4.00;99.90
33093;DHT22;19456;46.104;12.908;2023-02-01T19:49:08;3.90;99.90
33093;DHT22;19456;46.104;12.908;2023-02-01T19:51:37;3.40;99.90
33093;DHT22;19456;46.104;12.908;2023-02-01T19:54:05;3.20;99.90
33093;DHT22;19456;46.104;12.908;2023-02-01T19:56:31;3.10;99.90
33093;DHT22;19456;46.104;12.908;2023-02-01T19:58:57;2.90;99.90
33093;DHT22;19456;46.104;12.908;2023-02-01T20:01:23;2.90;99.90
33093;DHT22;19456;46.104;12.908;2023-02-01T20:03:50;2.80;99.90
33093;DHT22;19456;46.104;12.908;2023-02-01T20:06:16;3.20;99.90
33093;DHT22;19456;46.104;12.908;2023-02-01T20:08:42;3.20;99.90
33093;DHT22;19456;46.104;12.908;2023-02-01T20:11:07;3.50;99.90
33093;DHT22;19456;46.104;12.908;2023-02-01T20:13:34;3.70;99.90
33093;DHT22;19456;46.104;12.908;2023-02-01T20:16:01;3.80;99.90
33093;DHT22;19456;46.104;12.908;2023-02-01T20:18:26;3.80;99.90
33093;DHT22;19456;46.104;12.908;2023-02-01T20:20:56;3.80;99.90
33093;DHT22;19456;46.104;12.908;2023-02-01T20:23:22;3.80;99.90
33093;DHT22;19456;46.104;12.908;2023-02-01T20:25:47;3.70;99.90
33093;DHT22;19456;46.104;12.908;2023-02-01T20:28:13;3.70;99.90
33093;DHT22;19456;46.104;12.908;2023-02-01T20:30:38;3.60;99.90
33093;DHT22;19456;46.104;12.908;2023-02-01T20:33:04;3.50;99.90
33093;DHT22;19456;46.104;12.908;2023-02-01T20:35:29;3.40;99.90
33093;DHT22;19456;46.104;12.908;2023-02-01T20:37:55;3.30;99.90
33093;DHT22;19456;46.104;12.908;2023-02-01T20:40:26;3.30;99.90
33093;DHT22;19456;46.104;12.908;2023-02-01T20:42:52;3.30;99.90
33093;DHT22;19456;46.104;12.908;2023-02-01T20:45:18;3.20;99.90
33093;DHT22;19456;46.104;12.908;2023-02-01T20:47:47;3.20;99.90
33093;DHT22;19456;46.104;12.908;2023-02-01T20:50:13;3.30;99.90
33093;DHT22;19456;46.104;12.908;2023-02-01T20:52:38;3.30;99.90
33093;DHT22;19456;46.104;12.908;2023-02-01T20:55:04;3.20;99.90
33093;DHT22;19456;46.104;12.908;2023-02-01T20:57:30;3.10;99.90
33093;DHT22;19456;46.104;12.908;2023-02-01T20:59:55;3.20;99.90
33093;DHT22;19456;46.104;12.908;2023-02-01T21:02:21;3.30;99.90
33093;DHT22;19456;46.104;12.908;2023-02-01T21:04:47;3.40;99.90
33093;DHT22;19456;46.104;12.908;2023-02-01T21:07:12;3.30;99.90
33093;DHT22;19456;46.104;12.908;2023-02-01T21:09:38;3.40;99.90
33093;DHT22;19456;46.104;12.908;2023-02-01T21:12:05;3.50;99.90
33093;DHT22;19456;46.104;12.908;2023-02-01T21:14:31;3.70;99.90
33093;DHT22;19456;46.104;12.908;2023-02-01T21:16:56;3.70;99.90
33093;DHT22;19456;46.104;12.908;2023-02-01T21:19:22;3.60;99.90
33093;DHT22;19456;46.104;12.908;2023-02-01T21:21:50;3.60;99.90
33093;DHT22;19456;46.104;12.908;2023-02-01T21:24:15;3.60;99.90
33093;DHT22;19456;46.104;12.908;2023-02-01T21:26:41;3.60;99.90
33093;DHT22;19456;46.104;12.908;2023-02-01T21:29:08;3.50;99.90
33093;DHT22;19456;46.104;12.908;2023-02-01T21:31:34;3.60;99.90
33093;DHT22;19456;46.104;12.908;2023-02-01T21:33:59;3.60;99.90
33093;DHT22;19456;46.104;12.908;2023-02-01T21:36:25;3.50;99.90
33093;DHT22;19456;46.104;12.908;2023-02-01T21:38:53;3.60;99.90
33093;DHT22;19456;46.104;12.908;2023-02-01T21:41:21;3.60;99.90
33093;DHT22;19456;46.104;12.908;2023-02-01T21:44:05;3.70;99.90
33093;DHT22;19456;46.104;12.908;2023-02-01T21:46:31;3.70;99.90
33093;DHT22;19456;46.104;12.908;2023-02-01T21:48:57;3.60;99.90
33093;DHT22;19456;46.104;12.908;2023-02-01T21:51:22;3.50;99.90
33093;DHT22;19456;46.104;12.908;2023-02-01T21:53:48;3.50;99.90
33093;DHT22;19456;46.104;12.908;2023-02-01T21:56:14;3.50;99.90
33093;DHT22;19456;46.104;12.908;2023-02-01T21:58:39;3.60;99.90
33093;DHT22;19456;46.104;12.908;2023-02-01T22:01:06;3.60;99.90
33093;DHT22;19456;46.104;12.908;2023-02-01T22:03:32;3.70;99.90
33093;DHT22;19456;46.104;12.908;2023-02-01T22:05:57;3.80;99.90
33093;DHT22;19456;46.104;12.908;2023-02-01T22:08:23;3.70;99.90
33093;DHT22;19456;46.104;12.908;2023-02-01T22:10:48;3.60;99.90
33093;DHT22;19456;46.104;12.908;2023-02-01T22:13:14;3.50;99.90
33093;DHT22;19456;46.104;12.908;2023-02-01T22:15:39;3.40;99.90
33093;DHT22;19456;46.104;12.908;2023-02-01T22:18:05;3.50;99.90
33093;DHT22;19456;46.104;12.908;2023-02-01T22:20:31;3.70;99.90
33093;DHT22;19456;46.104;12.908;2023-02-01T22:22:56;3.70;99.90
33093;DHT22;19456;46.104;12.908;2023-02-01T22:25:22;3.70;99.90
33093;DHT22;19456;46.104;12.908;2023-02-01T22:27:53;3.80;99.90
33093;DHT22;19456;46.104;12.908;2023-02-01T22:30:18;3.90;99.90
33093;DHT22;19456;46.104;12.908;2023-02-01T22:32:44;3.80;99.90
33093;DHT22;19456;46.104;12.908;2023-02-01T22:35:09;3.80;99.90
33093;DHT22;19456;46.104;12.908;2023-02-01T22:37:35;3.70;99.90
33093;DHT22;19456;46.104;12.908;2023-02-01T22:40:01;3.50;99.90
33093;DHT22;19456;46.104;12.908;2023-02-01T22:42:29;3.40;99.90
33093;DHT22;19456;46.104;12.908;2023-02-01T22:44:54;3.40;99.90
33093;DHT22;19456;46.104;12.908;2023-02-01T22:47:20;3.30;99.90
33093;DHT22;19456;46.104;12.908;2023-02-01T22:49:45;3.20;99.90
33093;DHT22;19456;46.104;12.908;2023-02-01T22:52:11;3.10;99.90
33093;DHT22;19456;46.104;12.908;2023-02-01T22:54:36;2.90;99.90
33093;DHT22;19456;46.104;12.908;2023-02-01T22:57:04;3.00;99.90
33093;DHT22;19456;46.104;12.908;2023-02-01T22:59:32;3.10;99.90
33093;DHT22;19456;46.104;12.908;2023-02-01T23:01:57;3.10;99.90
33093;DHT22;19456;46.104;12.908;2023-02-01T23:04:23;3.20;99.90
33093;DHT22;19456;46.104;12.908;2023-02-01T23:06:49;3.10;99.90
33093;DHT22;19456;46.104;12.908;2023-02-01T23:09:21;2.90;99.90
33093;DHT22;19456;46.104;12.908;2023-02-01T23:11:48;2.90;99.90
33093;DHT22;19456;46.104;12.908;2023-02-01T23:14:14;2.90;99.90
33093;DHT22;19456;46.104;12.908;2023-02-01T23:16:39;2.90;99.90
33093;DHT22;19456;46.104;12.908;2023-02-01T23:19:05;2.80;99.90
33093;DHT22;19456;46.104;12.908;2023-02-01T23:21:31;2.90;99.90
33093;DHT22;19456;46.104;12.908;2023-02-01T23:23:57;3.20;99.90
33093;DHT22;19456;46.104;12.908;2023-02-01T23:26:24;3.40;99.90
33093;DHT22;19456;46.104;12.908;2023-02-01T23:28:50;3.40;99.90
33093;DHT22;19456;46.104;12.908;2023-02-01T23:31:18;3.40;99.90
33093;DHT22;19456;46.104;12.908;2023-02-01T23:33:44;3.30;99.90
33093;DHT22;19456;46.104;12.908;2023-02-01T23:36:10;3.30;99.90
33093;DHT22;19456;46.104;12.908;2023-02-01T23:38:36;3.30;99.90
33093;DHT22;19456;46.104;12.908;2023-02-01T23:41:03;3.30;99.90
33093;DHT22;19456;46.104;12.908;2023-02-01T23:43:29;3.10;99.90
33093;DHT22;19456;46.104;12.908;2023-02-01T23:46:13;3.10;99.90
33093;DHT22;19456;46.104;12.908;2023-02-01T23:48:43;3.20;99.90
33093;DHT22;19456;46.104;12.908;2023-02-01T23:51:08;3.30;99.90
33093;DHT22;19456;46.104;12.908;2023-02-01T23:53:34;3.10;99.90
33093;DHT22;19456;46.104;12.908;2023-02-01T23:56:00;3.00;99.90
33093;DHT22;19456;46.104;12.908;2023-02-01T23:58:26;3.10;99.90
